Time;durP1;ratioP1;P1;durP2;ratioP2;P2;SDS_P1;SDS_P2;PMS_P1;PMS_P2;Temp;Humidity;BMP_temperature;BMP_pressure;BME280_temperature;BME280_humidity;BME280_pressure;Samples;Min_cycle;Max_cycle;Signal;HPM_P1;HPM_P2
2023/05/14 00:01:20;;;;;;;147.18;68.63;;;13.50;99.90;;;;;;4007960;29;20285;-92
2023/05/14 00:03:21;;;;;;;148.68;68.85;;;13.50;99.90;;;;;;4023367;29;20178;-91
2023/05/14 00:05:22;;;;;;;137.75;66.55;;;13.60;99.90;;;;;;4007734;29;20207;-92
2023/05/14 00:07:29;;;;;;;146.10;68.25;;;13.80;99.90;;;;;;4008114;29;20178;-94
2023/05/14 00:09:30;;;;;;;157.50;71.00;;;13.90;99.90;;;;;;4007940;29;20215;-94
2023/05/14 00:11:31;;;;;;;150.05;70.85;;;13.90;99.90;;;;;;4007840;29;20316;-91
2023/05/14 00:13:32;;;;;;;144.43;71.88;;;13.80;99.90;;;;;;4038491;29;20544;-94
2023/05/14 00:15:32;;;;;;;145.23;71.45;;;13.90;99.90;;;;;;4038551;29;20198;-92
2023/05/14 00:17:33;;;;;;;155.88;71.47;;;14.00;99.90;;;;;;4023112;29;20182;-94
2023/05/14 00:19:34;;;;;;;154.02;72.68;;;14.20;99.90;;;;;;4038527;29;20169;-95
2023/05/14 00:21:35;;;;;;;148.02;69.57;;;14.00;99.90;;;;;;4022835;29;20185;-91
2023/05/14 00:23:35;;;;;;;159.07;70.55;;;14.00;99.90;;;;;;4022854;29;20282;-93
2023/05/14 00:25:36;;;;;;;156.65;69.53;;;13.90;99.90;;;;;;4022696;29;20205;-94
2023/05/14 00:27:37;;;;;;;148.23;68.55;;;13.90;99.90;;;;;;4007599;29;20178;-95
2023/05/14 00:29:38;;;;;;;146.60;67.30;;;14.00;99.90;;;;;;4007528;29;20223;-91
2023/05/14 00:31:38;;;;;;;143.13;65.57;;;13.80;99.90;;;;;;4007547;29;20278;-93
2023/05/14 00:33:39;;;;;;;137.73;65.45;;;13.60;99.90;;;;;;4007635;29;20178;-93
2023/05/14 00:35:40;;;;;;;147.38;64.78;;;13.50;99.90;;;;;;4007291;29;20237;-92
2023/05/14 00:37:41;;;;;;;139.38;64.82;;;13.60;99.90;;;;;;4037980;29;20194;-95
2023/05/14 00:39:42;;;;;;;128.05;59.28;;;13.70;99.90;;;;;;4038101;29;20671;-92
2023/05/14 00:41:42;;;;;;;144.63;66.40;;;13.50;99.90;;;;;;4038077;29;20635;-95
2023/05/14 00:43:44;;;;;;;137.48;64.55;;;13.60;99.90;;;;;;4037991;29;20230;-91
2023/05/14 00:45:46;;;;;;;140.43;63.08;;;13.60;99.90;;;;;;4037861;29;20682;-91
2023/05/14 00:47:48;;;;;;;135.70;63.15;;;13.70;99.90;;;;;;4037861;29;20273;-94
2023/05/14 00:49:49;;;;;;;127.10;62.35;;;13.70;99.90;;;;;;4007569;29;20222;-94
2023/05/14 00:51:50;;;;;;;135.27;64.88;;;13.70;99.90;;;;;;4038127;29;20567;-95
2023/05/14 00:53:51;;;;;;;129.60;62.60;;;13.80;99.90;;;;;;4022547;29;20182;-95
2023/05/14 00:55:52;;;;;;;127.68;65.03;;;13.90;99.90;;;;;;4022565;29;20182;-93
2023/05/14 00:57:54;;;;;;;138.75;63.55;;;14.00;99.90;;;;;;4022324;29;20178;-95
2023/05/14 00:59:55;;;;;;;134.70;62.08;;;14.00;99.90;;;;;;4022379;29;20194;-95
2023/05/14 01:01:56;;;;;;;131.48;63.08;;;14.00;99.90;;;;;;4037678;29;20182;-94
2023/05/14 01:03:57;;;;;;;134.73;63.92;;;13.80;99.90;;;;;;4022580;29;20270;-91
2023/05/14 01:06:33;;;;;;;134.75;62.63;;;13.80;99.90;;;;;;4021465;29;20194;-91
2023/05/14 01:08:45;;;;;;;149.13;66.88;;;13.80;99.90;;;;;;4006700;29;20182;-93
2023/05/14 01:10:54;;;;;;;136.80;64.85;;;13.90;99.90;;;;;;4037791;29;20690;-91
2023/05/14 01:13:03;;;;;;;139.68;67.22;;;13.90;99.90;;;;;;4022376;29;20741;-93
2023/05/14 01:15:09;;;;;;;141.32;66.22;;;14.10;99.90;;;;;;4022480;29;20204;-94
2023/05/14 01:17:14;;;;;;;147.98;68.50;;;14.10;99.90;;;;;;4022150;29;20204;-91
2023/05/14 01:19:32;;;;;;;153.88;70.00;;;14.00;99.90;;;;;;4022327;29;20278;-91
2023/05/14 01:21:36;;;;;;;145.73;66.38;;;14.40;99.90;;;;;;4006873;29;20175;-95
2023/05/14 01:23:37;;;;;;;140.45;61.88;;;14.00;99.90;;;;;;4022025;29;20189;-92
2023/05/14 01:25:37;;;;;;;134.38;67.45;;;13.90;99.90;;;;;;4022271;29;20198;-91
2023/05/14 01:27:54;;;;;;;137.70;66.57;;;13.90;99.90;;;;;;4022365;29;20226;-95
2023/05/14 01:30:07;;;;;;;139.80;67.18;;;13.80;99.90;;;;;;4021917;29;20309;-94
2023/05/14 01:32:09;;;;;;;130.02;65.25;;;13.80;99.90;;;;;;4022020;29;20226;-91
2023/05/14 01:34:11;;;;;;;130.20;64.00;;;13.80;99.90;;;;;;4006812;29;20210;-91
2023/05/14 01:36:12;;;;;;;139.20;63.08;;;13.80;99.90;;;;;;4021963;29;20281;-94
2023/05/14 01:38:17;;;;;;;121.97;61.70;;;13.90;99.90;;;;;;4006870;29;20175;-93
2023/05/14 01:40:18;;;;;;;128.70;62.95;;;13.80;99.90;;;;;;4022160;29;20596;-92
2023/05/14 01:42:19;;;;;;;128.50;62.65;;;13.80;99.90;;;;;;4037380;29;20177;-91
2023/05/14 01:44:20;;;;;;;132.23;60.97;;;13.90;99.90;;;;;;4037082;29;20350;-91
2023/05/14 01:46:23;;;;;;;128.57;63.13;;;13.80;99.90;;;;;;4021942;29;20648;-92
2023/05/14 01:48:24;;;;;;;122.82;60.25;;;13.90;99.90;;;;;;4037326;29;20197;-95
2023/05/14 01:50:25;;;;;;;115.45;59.45;;;13.70;99.90;;;;;;4037205;29;20266;-93
2023/05/14 01:52:26;;;;;;;116.55;58.13;;;13.70;99.90;;;;;;4037318;29;20180;-93
2023/05/14 01:54:26;;;;;;;111.63;55.55;;;13.70;99.90;;;;;;4021870;29;20198;-92
2023/05/14 01:56:27;;;;;;;110.72;56.45;;;13.80;99.90;;;;;;4022003;29;20182;-91
2023/05/14 01:58:28;;;;;;;117.28;57.25;;;13.70;99.90;;;;;;4021952;29;20174;-91
2023/05/14 02:00:29;;;;;;;108.57;54.53;;;13.60;99.90;;;;;;4037037;29;20174;-91
2023/05/14 02:02:31;;;;;;;99.38;52.97;;;13.60;99.90;;;;;;4036728;29;20173;-94
2023/05/14 02:04:33;;;;;;;103.40;54.17;;;13.50;99.90;;;;;;4037084;29;20197;-95
2023/05/14 02:06:34;;;;;;;111.78;55.13;;;13.40;99.90;;;;;;4021822;29;20194;-94
2023/05/14 02:08:34;;;;;;;109.97;54.20;;;13.40;99.90;;;;;;4037385;29;20674;-94
2023/05/14 02:10:35;;;;;;;108.07;53.63;;;13.60;99.90;;;;;;4037459;29;20682;-94
2023/05/14 02:12:36;;;;;;;107.10;53.95;;;13.80;99.90;;;;;;4021887;29;20174;-93
2023/05/14 02:14:37;;;;;;;106.88;53.20;;;13.60;99.90;;;;;;4037147;29;20710;-93
2023/05/14 02:16:38;;;;;;;100.60;52.17;;;13.70;99.90;;;;;;4022056;29;20207;-95
2023/05/14 02:18:39;;;;;;;103.50;50.88;;;13.70;99.90;;;;;;4024784;29;20190;-91
2023/05/14 02:20:40;;;;;;;108.68;52.28;;;13.80;99.90;;;;;;4040008;29;20186;-93
2023/05/14 02:22:44;;;;;;;99.95;50.17;;;13.80;99.90;;;;;;4024793;29;20186;-91
2023/05/14 02:24:45;;;;;;;91.10;47.88;;;14.20;99.90;;;;;;4039978;29;20205;-95
2023/05/14 02:26:47;;;;;;;94.07;49.13;;;14.00;99.90;;;;;;4024490;29;20228;-90
2023/05/14 02:28:48;;;;;;;93.00;49.15;;;13.90;99.90;;;;;;4024328;29;20557;-93
2023/05/14 02:30:48;;;;;;;90.85;48.17;;;14.00;99.90;;;;;;4039687;29;20266;-91
2023/05/14 02:32:49;;;;;;;91.38;45.88;;;14.10;99.90;;;;;;4024506;29;20170;-94
2023/05/14 02:34:50;;;;;;;93.80;47.75;;;13.80;99.90;;;;;;4024484;29;20254;-95
2023/05/14 02:36:51;;;;;;;98.18;49.00;;;13.70;99.90;;;;;;4039986;29;20202;-91
2023/05/14 02:38:51;;;;;;;101.00;49.30;;;13.90;99.90;;;;;;4039659;29;20238;-90
2023/05/14 02:40:52;;;;;;;92.85;47.75;;;13.90;99.90;;;;;;4024170;29;20601;-93
2023/05/14 02:42:53;;;;;;;100.40;48.05;;;13.80;99.90;;;;;;4024509;29;20186;-92
2023/05/14 02:44:54;;;;;;;95.47;49.25;;;13.60;99.90;;;;;;4039783;29;20241;-91
2023/05/14 02:46:54;;;;;;;96.03;48.63;;;13.60;99.90;;;;;;4039947;29;20261;-94
2023/05/14 02:48:55;;;;;;;86.63;47.85;;;14.10;99.90;;;;;;4024400;29;20189;-94
2023/05/14 02:50:56;;;;;;;97.47;48.38;;;13.90;99.90;;;;;;4024233;29;20583;-94
2023/05/14 02:52:57;;;;;;;102.68;49.88;;;13.90;99.90;;;;;;4024424;29;20363;-91
2023/05/14 02:54:58;;;;;;;97.57;49.55;;;13.80;99.90;;;;;;4024112;29;20209;-91
2023/05/14 02:56:58;;;;;;;94.63;49.15;;;13.90;99.90;;;;;;4024105;29;20531;-93
2023/05/14 02:58:59;;;;;;;101.25;50.33;;;13.90;99.90;;;;;;4024095;29;20192;-94
2023/05/14 03:01:00;;;;;;;84.80;48.80;;;14.00;99.90;;;;;;4024155;29;20189;-94
2023/05/14 03:03:01;;;;;;;98.97;49.15;;;14.00;99.90;;;;;;4008724;29;20636;-93
2023/05/14 03:05:02;;;;;;;105.63;50.17;;;14.00;99.90;;;;;;4039280;29;20201;-92
2023/05/14 03:07:03;;;;;;;93.25;49.28;;;14.10;99.90;;;;;;4039426;29;20213;-94
2023/05/14 03:09:04;;;;;;;89.60;49.50;;;14.00;99.90;;;;;;4024165;29;20190;-91
2023/05/14 03:11:05;;;;;;;105.25;51.17;;;13.60;99.90;;;;;;4024339;29;20343;-93
2023/05/14 03:13:06;;;;;;;100.20;49.67;;;13.60;99.90;;;;;;4023948;29;20178;-92
2023/05/14 03:15:08;;;;;;;96.00;50.88;;;13.70;99.90;;;;;;4008827;29;20306;-92
2023/05/14 03:17:09;;;;;;;102.82;50.85;;;13.70;99.90;;;;;;4009103;29;20171;-94
2023/05/14 03:19:09;;;;;;;95.82;50.60;;;13.70;99.90;;;;;;4008619;29;20215;-91
2023/05/14 03:21:10;;;;;;;91.47;49.28;;;14.00;99.90;;;;;;4023730;29;20273;-91
2023/05/14 03:23:11;;;;;;;97.03;50.05;;;14.20;99.90;;;;;;4039119;29;20754;-94
2023/05/14 03:25:12;;;;;;;97.72;49.42;;;14.10;99.90;;;;;;4023657;29;20198;-93
2023/05/14 03:27:13;;;;;;;95.47;49.30;;;14.20;99.90;;;;;;4023860;29;20178;-93
2023/05/14 03:29:16;;;;;;;101.00;49.75;;;14.00;99.90;;;;;;4038128;29;20184;-90
2023/05/14 03:31:17;;;;;;;95.57;50.35;;;13.90;99.90;;;;;;4023579;29;20260;-92
2023/05/14 03:33:18;;;;;;;88.40;49.38;;;13.90;99.90;;;;;;4008342;29;20179;-93
2023/05/14 03:35:19;;;;;;;92.60;49.35;;;13.90;99.90;;;;;;4023446;29;20243;-90
2023/05/14 03:37:20;;;;;;;98.13;50.67;;;14.00;99.90;;;;;;4023686;29;20271;-93
2023/05/14 03:39:21;;;;;;;88.65;48.83;;;13.90;99.90;;;;;;4008387;29;20195;-91
2023/05/14 03:41:22;;;;;;;87.65;47.72;;;13.80;99.90;;;;;;4008113;29;20636;-95
2023/05/14 03:43:23;;;;;;;84.18;46.38;;;13.90;99.90;;;;;;4023628;29;20206;-91
2023/05/14 03:45:25;;;;;;;90.32;49.53;;;14.00;99.90;;;;;;4038713;29;20679;-96
2023/05/14 03:47:26;;;;;;;99.70;49.20;;;13.70;99.90;;;;;;4038834;29;20185;-92
2023/05/14 03:49:27;;;;;;;82.88;45.88;;;13.80;99.90;;;;;;4038767;29;20672;-92
2023/05/14 03:51:30;;;;;;;105.63;49.33;;;13.90;99.90;;;;;;4023509;29;20186;-91
2023/05/14 03:53:32;;;;;;;96.93;50.60;;;14.10;99.90;;;;;;4038884;29;20185;-94
2023/05/14 03:55:33;;;;;;;93.60;47.78;;;14.10;99.90;;;;;;4038624;29;20209;-94
2023/05/14 03:57:34;;;;;;;86.60;47.55;;;14.00;99.90;;;;;;4023714;29;20227;-94
2023/05/14 03:59:36;;;;;;;88.32;47.25;;;14.00;99.90;;;;;;4023556;29;20211;-91
2023/05/14 04:01:37;;;;;;;92.40;47.88;;;14.00;99.90;;;;;;4008276;29;20553;-93
2023/05/14 04:03:37;;;;;;;94.22;47.35;;;14.30;99.90;;;;;;4023625;29;20174;-94
2023/05/14 04:05:38;;;;;;;93.68;49.75;;;14.60;99.90;;;;;;4038427;29;20221;-90
2023/05/14 04:07:39;;;;;;;98.25;49.47;;;14.50;99.90;;;;;;4023306;29;20177;-91
2023/05/14 04:09:40;;;;;;;99.75;51.03;;;14.20;99.90;;;;;;4038527;29;20271;-94
2023/05/14 04:11:41;;;;;;;93.07;48.08;;;14.40;99.90;;;;;;4023252;29;20612;-90
2023/05/14 04:13:42;;;;;;;89.25;49.17;;;14.30;99.90;;;;;;4023174;29;20172;-93
2023/05/14 04:15:44;;;;;;;89.70;48.13;;;14.10;99.90;;;;;;4022848;29;20209;-91
2023/05/14 04:17:45;;;;;;;92.15;48.22;;;14.00;99.90;;;;;;4022871;29;20175;-94
2023/05/14 04:19:46;;;;;;;83.85;46.67;;;14.00;99.90;;;;;;4007528;29;20656;-92
2023/05/14 04:21:47;;;;;;;99.35;47.75;;;13.90;99.90;;;;;;4023140;29;20170;-91
2023/05/14 04:23:49;;;;;;;90.78;46.38;;;13.90;99.90;;;;;;4007625;29;20564;-91
2023/05/14 04:25:50;;;;;;;88.25;47.47;;;13.80;99.90;;;;;;4007739;29;20179;-90
2023/05/14 04:27:51;;;;;;;91.30;47.85;;;14.00;99.90;;;;;;4038355;29;20181;-95
2023/05/14 04:29:51;;;;;;;85.28;47.33;;;14.30;99.90;;;;;;4022572;29;20209;-91
2023/05/14 04:31:52;;;;;;;86.53;47.63;;;14.10;99.90;;;;;;4022897;29;20277;-91
2023/05/14 04:33:54;;;;;;;88.05;47.10;;;14.20;99.90;;;;;;4022671;29;20195;-91
2023/05/14 04:35:55;;;;;;;89.07;48.40;;;14.20;99.90;;;;;;4022768;29;20216;-91
2023/05/14 04:37:56;;;;;;;96.07;48.05;;;14.10;99.90;;;;;;4023032;29;20715;-91
2023/05/14 04:39:57;;;;;;;91.68;48.97;;;14.40;99.90;;;;;;4022519;29;20298;-91
2023/05/14 04:41:57;;;;;;;91.53;49.30;;;14.40;99.90;;;;;;4038046;29;20186;-93
2023/05/14 04:44:00;;;;;;;94.25;48.53;;;14.20;99.90;;;;;;4022647;29;20193;-91
2023/05/14 04:46:01;;;;;;;90.13;48.15;;;14.10;99.90;;;;;;4007322;29;20179;-91
2023/05/14 04:48:03;;;;;;;90.90;48.58;;;14.20;99.90;;;;;;4037935;29;20188;-94
2023/05/14 04:50:05;;;;;;;81.60;46.83;;;14.10;99.90;;;;;;4037732;29;20629;-95
2023/05/14 04:52:06;;;;;;;85.20;47.58;;;14.30;99.90;;;;;;4022295;29;20594;-93
2023/05/14 04:54:07;;;;;;;82.40;46.60;;;14.30;99.90;;;;;;4022524;29;20211;-91
2023/05/14 04:56:07;;;;;;;98.47;48.88;;;14.20;99.90;;;;;;4022752;29;20181;-94
2023/05/14 04:58:08;;;;;;;96.60;48.47;;;14.20;99.90;;;;;;4038072;29;20248;-90
2023/05/14 05:00:10;;;;;;;93.72;46.10;;;14.30;99.90;;;;;;4022615;29;20180;-92
2023/05/14 05:02:11;;;;;;;96.63;47.25;;;14.10;99.90;;;;;;4007289;29;20194;-91
2023/05/14 05:04:12;;;;;;;91.05;47.00;;;14.10;99.90;;;;;;4037447;29;20200;-92
2023/05/14 05:06:13;;;;;;;93.88;47.05;;;14.10;99.90;;;;;;4022616;29;20198;-89
2023/05/14 05:08:13;;;;;;;98.25;48.85;;;14.30;99.90;;;;;;4022349;29;20178;-91
2023/05/14 05:10:14;;;;;;;110.25;49.95;;;14.30;99.90;;;;;;4022394;29;20212;-95
2023/05/14 05:12:15;;;;;;;94.72;48.22;;;14.30;99.90;;;;;;4007130;29;20182;-90
2023/05/14 05:14:16;;;;;;;88.85;48.53;;;14.50;99.90;;;;;;4037597;29;20360;-91
2023/05/14 05:16:17;;;;;;;97.35;49.65;;;14.10;99.90;;;;;;4037517;29;20578;-94
2023/05/14 05:18:17;;;;;;;104.43;51.92;;;14.10;99.90;;;;;;4022496;29;20659;-90
2023/05/14 05:20:18;;;;;;;94.35;49.65;;;13.90;99.90;;;;;;4037269;29;20671;-91
2023/05/14 05:22:19;;;;;;;95.97;49.10;;;13.90;99.90;;;;;;4022167;29;20607;-90
2023/05/14 05:24:20;;;;;;;93.35;48.85;;;14.00;99.90;;;;;;4037477;29;20590;-95
2023/05/14 05:26:25;;;;;;;96.55;48.58;;;14.20;99.90;;;;;;4022404;29;20239;-93
2023/05/14 05:28:26;;;;;;;91.45;46.92;;;14.20;99.90;;;;;;4037437;29;20186;-94
2023/05/14 05:30:27;;;;;;;98.68;50.03;;;14.20;99.90;;;;;;4022014;29;20224;-90
2023/05/14 05:32:28;;;;;;;96.95;49.72;;;14.10;99.90;;;;;;4021923;29;20246;-96
2023/05/14 05:34:28;;;;;;;108.47;52.47;;;14.20;99.90;;;;;;4021945;29;20202;-94
2023/05/14 05:36:29;;;;;;;111.82;52.95;;;14.30;99.90;;;;;;4037392;29;20650;-91
2023/05/14 05:38:30;;;;;;;110.70;51.58;;;14.20;99.90;;;;;;4021994;29;20610;-94
2023/05/14 05:40:31;;;;;;;100.50;50.75;;;14.10;99.90;;;;;;4006634;29;20187;-91
2023/05/14 05:42:32;;;;;;;103.50;52.13;;;14.00;99.90;;;;;;4022223;29;20690;-90
2023/05/14 05:44:33;;;;;;;111.28;49.78;;;14.20;99.90;;;;;;4037375;29;20201;-91
2023/05/14 05:46:33;;;;;;;96.03;48.47;;;14.10;99.90;;;;;;4037227;29;20179;-91
2023/05/14 05:48:34;;;;;;;109.15;51.33;;;14.00;99.90;;;;;;4037462;29;20174;-91
2023/05/14 05:50:35;;;;;;;103.10;51.53;;;13.90;99.90;;;;;;4006392;29;20214;-94
2023/05/14 05:52:36;;;;;;;105.43;50.47;;;14.00;99.90;;;;;;4039128;29;20173;-90
2023/05/14 05:54:38;;;;;;;112.60;52.47;;;14.00;99.90;;;;;;4040590;29;20201;-90
2023/05/14 05:56:39;;;;;;;107.57;52.55;;;14.20;99.90;;;;;;4009983;29;20190;-93
2023/05/14 05:58:40;;;;;;;107.28;51.33;;;14.20;99.90;;;;;;4024988;29;20655;-94
2023/05/14 06:00:41;;;;;;;109.80;52.05;;;14.10;99.90;;;;;;4009875;29;20244;-95
2023/05/14 06:02:42;;;;;;;114.28;54.08;;;14.10;99.90;;;;;;4009921;29;20383;-90
2023/05/14 06:04:43;;;;;;;109.75;52.22;;;14.00;99.90;;;;;;4024975;29;20212;-91
2023/05/14 06:06:43;;;;;;;112.53;53.53;;;14.20;99.90;;;;;;4040235;29;20194;-92
2023/05/14 06:08:44;;;;;;;114.97;53.90;;;14.20;99.90;;;;;;4024987;29;20623;-90
2023/05/14 06:10:45;;;;;;;118.47;53.55;;;14.10;99.90;;;;;;4040284;29;20221;-90
2023/05/14 06:12:46;;;;;;;120.82;55.63;;;14.50;99.90;;;;;;4040359;29;20185;-91
2023/05/14 06:14:47;;;;;;;133.02;57.00;;;14.90;99.90;;;;;;4040188;29;20230;-90
2023/05/14 06:16:47;;;;;;;125.80;56.15;;;14.70;99.90;;;;;;4024919;29;20181;-90
2023/05/14 06:18:48;;;;;;;138.43;60.15;;;14.50;99.90;;;;;;4024709;29;20694;-90
2023/05/14 06:20:49;;;;;;;135.02;59.25;;;14.20;99.90;;;;;;4024733;29;20660;-91
2023/05/14 06:22:50;;;;;;;164.27;68.75;;;14.20;99.90;;;;;;4009421;29;20185;-91
2023/05/14 06:24:50;;;;;;;176.00;68.90;;;14.20;99.90;;;;;;4009302;29;20199;-90
2023/05/14 06:26:51;;;;;;;173.93;68.40;;;14.00;99.90;;;;;;4024770;29;20182;-91
2023/05/14 06:28:52;;;;;;;168.70;70.07;;;13.90;99.90;;;;;;4009446;29;20179;-90
2023/05/14 06:30:53;;;;;;;170.52;69.70;;;13.80;99.90;;;;;;4009535;29;20218;-95
2023/05/14 06:32:54;;;;;;;167.18;69.93;;;14.00;99.90;;;;;;4009220;29;20183;-91
2023/05/14 06:34:54;;;;;;;188.18;74.75;;;14.20;99.90;;;;;;4039996;29;20289;-92
2023/05/14 06:36:56;;;;;;;200.65;79.00;;;14.00;99.90;;;;;;4024662;29;20178;-90
2023/05/14 06:38:57;;;;;;;206.10;78.65;;;13.90;99.90;;;;;;4024793;29;20194;-95
2023/05/14 06:40:57;;;;;;;191.80;75.47;;;14.00;99.90;;;;;;4009139;29;20174;-90
2023/05/14 06:42:58;;;;;;;190.25;76.75;;;14.10;99.90;;;;;;4040033;29;20635;-94
2023/05/14 06:44:59;;;;;;;195.77;75.43;;;14.20;99.90;;;;;;4024389;29;20206;-90
2023/05/14 06:47:00;;;;;;;171.57;72.22;;;14.20;99.90;;;;;;4024502;29;20584;-95
2023/05/14 06:49:01;;;;;;;177.90;71.72;;;14.30;99.90;;;;;;4039764;29;20317;-95
2023/05/14 06:51:02;;;;;;;158.02;68.53;;;14.40;99.90;;;;;;4024161;29;20304;-92
2023/05/14 06:53:03;;;;;;;153.75;67.22;;;14.30;99.90;;;;;;4024405;29;20647;-94
2023/05/14 06:55:04;;;;;;;161.57;68.65;;;14.40;99.90;;;;;;4009114;29;20263;-90
2023/05/14 06:57:05;;;;;;;156.60;65.38;;;14.50;99.90;;;;;;4024537;29;20264;-89
2023/05/14 06:59:06;;;;;;;136.45;61.78;;;14.50;99.90;;;;;;4024305;29;20613;-91
2023/05/14 07:01:06;;;;;;;109.95;53.80;;;14.50;99.90;;;;;;4039837;29;20224;-94
2023/05/14 07:03:07;;;;;;;100.53;51.35;;;14.50;99.90;;;;;;4023664;29;20190;-91
2023/05/14 07:05:09;;;;;;;110.15;53.90;;;14.40;99.90;;;;;;4038840;29;20202;-90
2023/05/14 07:07:14;;;;;;;107.18;53.38;;;14.50;99.90;;;;;;4024028;29;20205;-90
2023/05/14 07:09:15;;;;;;;114.05;53.78;;;14.60;99.90;;;;;;4039401;29;20181;-91
2023/05/14 07:11:16;;;;;;;120.07;56.25;;;14.60;99.90;;;;;;4008703;29;20652;-90
2023/05/14 07:13:16;;;;;;;127.97;59.53;;;14.50;99.90;;;;;;4039291;29;20235;-89
2023/05/14 07:15:17;;;;;;;120.57;56.90;;;14.50;99.90;;;;;;4024029;29;20204;-90
2023/05/14 07:17:18;;;;;;;134.48;59.65;;;14.60;99.90;;;;;;4023797;29;20201;-94
2023/05/14 07:19:19;;;;;;;129.40;60.08;;;14.70;99.90;;;;;;4023825;29;20273;-91
2023/05/14 07:21:20;;;;;;;123.10;59.35;;;14.90;99.90;;;;;;4008798;29;20179;-90
2023/05/14 07:23:20;;;;;;;120.32;55.88;;;15.00;99.90;;;;;;4008604;29;20171;-90
2023/05/14 07:25:21;;;;;;;124.38;54.58;;;14.80;99.90;;;;;;4023702;29;20198;-91
2023/05/14 07:27:22;;;;;;;109.53;51.10;;;14.70;99.90;;;;;;4039132;29;20200;-92
2023/05/14 07:29:24;;;;;;;102.70;49.97;;;14.80;99.90;;;;;;4038677;29;20631;-92
2023/05/14 07:31:25;;;;;;;97.70;48.15;;;14.80;99.90;;;;;;4023852;29;20189;-90
2023/05/14 07:33:26;;;;;;;93.88;47.10;;;14.50;99.90;;;;;;4008569;29;20600;-91
2023/05/14 07:35:27;;;;;;;90.22;47.25;;;14.60;99.90;;;;;;4008259;29;20210;-91
2023/05/14 07:37:27;;;;;;;97.47;49.50;;;14.50;99.90;;;;;;4008422;29;20183;-90
2023/05/14 07:39:28;;;;;;;79.75;41.83;;;14.50;99.90;;;;;;4008305;29;20190;-91
2023/05/14 07:41:29;;;;;;;82.90;43.75;;;14.30;99.90;;;;;;4023664;29;20253;-94
2023/05/14 07:43:30;;;;;;;69.13;38.45;;;14.30;99.90;;;;;;4008538;29;20187;-89
2023/05/14 07:45:30;;;;;;;64.75;39.53;;;14.50;99.90;;;;;;4008342;29;20202;-94
2023/05/14 07:47:32;;;;;;;67.57;41.08;;;14.60;99.90;;;;;;4023147;29;20182;-91
2023/05/14 07:49:32;;;;;;;68.97;40.15;;;14.60;99.90;;;;;;4008207;29;20210;-91
2023/05/14 07:51:33;;;;;;;75.25;41.22;;;14.90;99.90;;;;;;4008134;29;20194;-92
2023/05/14 07:53:34;;;;;;;70.82;40.28;;;15.00;99.90;;;;;;4023891;29;20173;-91
2023/05/14 07:55:35;;;;;;;67.75;39.60;;;15.30;99.90;;;;;;4008300;29;20654;-93
2023/05/14 07:57:36;;;;;;;73.70;39.67;;;15.10;99.90;;;;;;4008586;29;20182;-90
2023/05/14 07:59:37;;;;;;;75.28;41.33;;;15.30;99.90;;;;;;4023608;29;20265;-89
2023/05/14 08:01:37;;;;;;;73.88;42.35;;;15.20;99.90;;;;;;4008432;29;20178;-92
2023/05/14 08:03:38;;;;;;;70.20;43.22;;;15.30;99.90;;;;;;4023434;29;20674;-90
2023/05/14 08:05:39;;;;;;;76.10;42.70;;;15.40;99.90;;;;;;4040927;29;20725;-95
2023/05/14 08:07:40;;;;;;;81.20;44.10;;;15.20;99.90;;;;;;4039082;29;20261;-90
2023/05/14 08:09:41;;;;;;;77.22;42.03;;;15.20;99.90;;;;;;4007967;29;20230;-95
2023/05/14 08:11:42;;;;;;;68.70;41.17;;;14.90;99.90;;;;;;4008000;29;20661;-94
2023/05/14 08:13:43;;;;;;;68.75;41.17;;;14.70;99.90;;;;;;4038172;29;20180;-94
2023/05/14 08:15:43;;;;;;;60.08;38.00;;;15.00;99.90;;;;;;4022772;29;20599;-90
2023/05/14 08:17:44;;;;;;;75.88;39.30;;;14.80;99.90;;;;;;4038741;29;20216;-94
2023/05/14 08:19:45;;;;;;;64.10;39.58;;;14.90;99.90;;;;;;4023043;29;20185;-90
2023/05/14 08:21:46;;;;;;;62.22;37.55;;;15.10;99.90;;;;;;4038334;29;20176;-90
2023/05/14 08:23:47;;;;;;;59.53;36.70;;;15.40;99.90;;;;;;4022984;29;20178;-90
2023/05/14 08:25:47;;;;;;;61.65;34.38;;;15.60;99.90;;;;;;4007551;29;20309;-90
2023/05/14 08:27:49;;;;;;;58.63;36.45;;;15.80;99.90;;;;;;4022950;29;20742;-90
2023/05/14 08:29:50;;;;;;;55.20;35.53;;;15.80;99.90;;;;;;4038160;29;20213;-90
2023/05/14 08:31:51;;;;;;;58.28;34.25;;;16.20;99.90;;;;;;4038075;29;20181;-95
2023/05/14 08:33:51;;;;;;;51.55;35.08;;;16.20;99.90;;;;;;4037982;29;20639;-93
2023/05/14 08:35:53;;;;;;;52.67;32.85;;;16.50;99.90;;;;;;4023240;29;20746;-90
2023/05/14 08:37:55;;;;;;;49.40;33.70;;;16.10;99.90;;;;;;4023098;29;20626;-94
2023/05/14 08:39:56;;;;;;;53.33;32.05;;;16.10;99.90;;;;;;4022992;29;20285;-94
2023/05/14 08:41:59;;;;;;;55.30;31.17;;;16.10;99.90;;;;;;4007886;29;20179;-91
2023/05/14 08:44:21;;;;;;;60.08;32.05;;;16.20;99.90;;;;;;4022633;29;20205;-91
2023/05/14 08:46:23;;;;;;;47.30;31.02;;;16.40;99.90;;;;;;4009658;29;20202;-90
2023/05/14 08:48:28;;;;;;;54.28;32.05;;;16.40;99.90;;;;;;4022690;29;20186;-95
2023/05/14 08:50:29;;;;;;;45.55;29.70;;;16.40;99.90;;;;;;4007294;29;20386;-95
2023/05/14 08:52:30;;;;;;;50.95;32.28;;;16.10;99.90;;;;;;4038135;29;20165;-93
2023/05/14 08:54:32;;;;;;;46.83;31.45;;;16.40;99.90;;;;;;4037934;29;20201;-95
2023/05/14 08:56:32;;;;;;;48.38;31.40;;;16.60;99.90;;;;;;4038068;29;20516;-89
2023/05/14 08:58:33;;;;;;;42.03;29.00;;;16.90;99.90;;;;;;4022640;29;20269;-90
2023/05/14 09:00:34;;;;;;;50.92;32.53;;;17.00;99.90;;;;;;4037988;29;20181;-91
2023/05/14 09:02:36;;;;;;;44.03;29.60;;;17.30;99.90;;;;;;4037908;29;20182;-91
2023/05/14 09:04:37;;;;;;;41.20;27.90;;;18.20;99.90;;;;;;4037971;29;20385;-91
2023/05/14 09:06:39;;;;;;;44.67;28.05;;;18.50;99.90;;;;;;4038127;29;20194;-94
2023/05/14 09:08:39;;;;;;;38.78;26.60;;;18.50;99.90;;;;;;4038017;29;20654;-92
2023/05/14 09:10:40;;;;;;;42.70;28.88;;;18.50;99.90;;;;;;4007270;29;20231;-95
2023/05/14 09:12:41;;;;;;;41.15;27.52;;;18.20;99.90;;;;;;4007047;29;20265;-91
2023/05/14 09:14:42;;;;;;;39.78;28.08;;;18.20;99.90;;;;;;4021997;29;20265;-91
2023/05/14 09:16:48;;;;;;;42.67;26.52;;;18.70;99.90;;;;;;4022368;29;20167;-96
2023/05/14 09:18:50;;;;;;;39.35;26.52;;;18.40;99.90;;;;;;4007023;29;20266;-91
2023/05/14 09:20:51;;;;;;;39.83;26.70;;;18.20;99.90;;;;;;4022123;29;20167;-90
2023/05/14 09:22:53;;;;;;;40.67;25.55;;;18.00;99.90;;;;;;4007150;29;20687;-95
2023/05/14 09:25:12;;;;;;;37.97;25.23;;;18.00;99.90;;;;;;4022501;29;20209;-93
2023/05/14 09:27:21;;;;;;;40.90;25.33;;;18.00;99.90;;;;;;4021641;29;20653;-92
2023/05/14 09:29:25;;;;;;;41.42;25.30;;;17.50;99.90;;;;;;4023959;29;20181;-95
2023/05/14 09:31:28;;;;;;;38.50;25.75;;;17.80;99.90;;;;;;4022904;29;20192;-95
2023/05/14 09:33:29;;;;;;;37.55;25.52;;;17.70;99.90;;;;;;4030628;29;20282;-96
2023/05/14 09:35:31;;;;;;;39.80;26.33;;;17.50;99.90;;;;;;4046001;29;20228;-95
2023/05/14 09:37:35;;;;;;;32.50;24.92;;;17.80;99.90;;;;;;4042372;29;20170;-93
2023/05/14 09:39:37;;;;;;;36.55;25.08;;;18.20;99.90;;;;;;4024805;29;20174;-95
2023/05/14 09:41:38;;;;;;;38.65;25.13;;;18.60;99.90;;;;;;4023816;29;20319;-92
2023/05/14 09:43:42;;;;;;;39.95;25.90;;;18.00;99.90;;;;;;4024376;29;20178;-92
2023/05/14 09:45:44;;;;;;;38.63;26.02;;;18.50;99.90;;;;;;4026870;29;20699;-95
2023/05/14 09:47:45;;;;;;;40.15;28.20;;;19.00;99.90;;;;;;4034799;29;20202;-94
2023/05/14 09:49:49;;;;;;;44.08;27.98;;;19.70;99.90;;;;;;4019416;29;20279;-93
2023/05/14 09:51:50;;;;;;;37.03;25.55;;;20.00;99.90;;;;;;4041382;29;20225;-94
2023/05/14 09:53:55;;;;;;;49.60;28.85;;;20.10;99.90;;;;;;4012691;29;20190;-96
2023/05/14 09:55:55;;;;;;;41.78;26.75;;;20.30;99.90;;;;;;4010576;29;20186;-95
2023/05/14 09:57:56;;;;;;;60.72;37.08;;;19.80;99.90;;;;;;4036784;29;20666;-90
2023/05/14 09:59:57;;;;;;;57.97;36.95;;;19.40;99.90;;;;;;4021989;29;20585;-91
2023/05/14 10:01:58;;;;;;;55.50;34.72;;;19.10;99.90;;;;;;4022761;29;20182;-95
2023/05/14 10:04:02;;;;;;;49.03;31.63;;;19.00;99.90;;;;;;4038032;29;20260;-91
2023/05/14 10:06:05;;;;;;;42.30;28.13;;;18.70;99.90;;;;;;4039097;29;20197;-95
2023/05/14 10:08:26;;;;;;;38.67;24.60;;;18.40;99.90;;;;;;4037396;29;20185;-91
2023/05/14 10:10:29;;;;;;;39.28;26.13;;;18.10;99.90;;;;;;4021826;29;20218;-91
2023/05/14 10:12:35;;;;;;;43.70;26.35;;;18.70;99.90;;;;;;4022076;29;20200;-93
2023/05/14 10:14:41;;;;;;;35.28;24.45;;;19.00;99.90;;;;;;4006615;29;20206;-95